Time;durP1;ratioP1;P1;durP2;ratioP2;P2;SDS_P1;SDS_P2;PMS_P1;PMS_P2;Temp;Humidity;BMP_temperature;BMP_pressure;BME280_temperature;BME280_humidity;BME280_pressure;Samples;Min_cycle;Max_cycle;Signal;HPM_P1;HPM_P2
2024/01/26 00:01:37;;;;;;;7.88;2.70;;;10.80;87.10;;;;;;6200051;23;20016;-84
2024/01/26 00:07:09;;;;;;;6.78;2.83;;;10.60;86.40;;;;;;6198074;23;20009;-83
2024/01/26 00:09:57;;;;;;;6.35;2.58;;;10.70;86.50;;;;;;6187832;23;19993;-83
2024/01/26 00:12:23;;;;;;;7.03;2.33;;;10.50;86.40;;;;;;6187898;23;20052;-81
2024/01/26 00:14:51;;;;;;;5.68;2.58;;;10.60;86.40;;;;;;6187102;23;20000;-82
2024/01/26 00:17:17;;;;;;;7.20;2.70;;;10.70;86.50;;;;;;6182530;23;20016;-81
2024/01/26 00:19:47;;;;;;;7.28;2.70;;;10.60;86.40;;;;;;6163912;23;20001;-82
2024/01/26 00:22:15;;;;;;;6.65;2.50;;;10.80;86.50;;;;;;6213323;23;19995;-81
2024/01/26 00:24:41;;;;;;;5.97;2.38;;;10.60;86.50;;;;;;6188045;23;19993;-81
2024/01/26 00:28:14;;;;;;;6.30;2.65;;;10.90;86.60;;;;;;6213374;23;20017;-82
2024/01/26 00:31:06;;;;;;;6.57;2.60;;;10.70;86.50;;;;;;6213600;23;19993;-81
2024/01/26 00:33:42;;;;;;;6.25;2.30;;;10.70;86.50;;;;;;6187800;23;19989;-81
2024/01/26 00:36:17;;;;;;;6.47;2.42;;;10.70;86.50;;;;;;6185568;23;19997;-81
2024/01/26 00:41:19;;;;;;;7.63;2.50;;;10.70;86.50;;;;;;6199265;23;20012;-85
2024/01/26 00:43:46;;;;;;;5.82;2.50;;;10.70;86.50;;;;;;6212916;23;20001;-83
2024/01/26 00:46:12;;;;;;;6.13;2.40;;;10.60;86.50;;;;;;6187995;23;20009;-83
2024/01/26 00:48:37;;;;;;;6.97;2.58;;;10.70;86.50;;;;;;6187446;23;20020;-80
2024/01/26 00:51:04;;;;;;;6.65;2.60;;;10.80;86.50;;;;;;6188324;23;20052;-83
2024/01/26 00:53:30;;;;;;;5.88;2.47;;;10.70;86.50;;;;;;6189403;23;19989;-84
2024/01/26 00:55:55;;;;;;;4.93;2.13;;;10.60;86.40;;;;;;6189633;23;20017;-84
2024/01/26 00:58:21;;;;;;;6.28;2.42;;;11.10;86.70;;;;;;6189235;23;20008;-82
2024/01/26 01:00:47;;;;;;;4.88;2.25;;;12.10;87.30;;;;;;6189270;23;20072;-84
2024/01/26 01:03:13;;;;;;;6.45;2.50;;;10.80;86.60;;;;;;6188616;23;20000;-82
2024/01/26 01:05:40;;;;;;;6.82;2.50;;;10.60;86.50;;;;;;6189296;23;20016;-83
2024/01/26 01:08:06;;;;;;;6.82;2.50;;;10.70;86.50;;;;;;6189628;23;20005;-82
2024/01/26 01:10:33;;;;;;;5.63;2.33;;;10.80;86.60;;;;;;6189637;23;19993;-84
2024/01/26 01:12:59;;;;;;;5.50;2.47;;;10.70;86.50;;;;;;6189442;23;19993;-84
2024/01/26 01:15:24;;;;;;;5.40;2.22;;;10.70;86.60;;;;;;6189236;23;20016;-83
2024/01/26 01:17:52;;;;;;;5.65;2.65;;;10.70;86.50;;;;;;6189097;23;20037;-82
2024/01/26 01:20:18;;;;;;;5.90;2.67;;;12.00;87.30;;;;;;6189711;23;20012;-83
2024/01/26 01:22:45;;;;;;;5.72;2.55;;;10.70;86.50;;;;;;6189244;23;19985;-84
2024/01/26 01:25:12;;;;;;;5.88;2.50;;;10.80;86.60;;;;;;6188733;23;20000;-81
2024/01/26 01:27:38;;;;;;;6.20;2.33;;;10.60;86.50;;;;;;6188749;23;20005;-82
2024/01/26 01:30:05;;;;;;;6.85;2.70;;;10.60;86.50;;;;;;6189164;23;19997;-83
2024/01/26 01:32:34;;;;;;;7.95;2.72;;;10.70;86.50;;;;;;6215103;23;19989;-85
2024/01/26 01:35:00;;;;;;;6.57;2.47;;;10.50;86.50;;;;;;6189337;23;19993;-85
2024/01/26 01:37:27;;;;;;;6.03;2.50;;;10.50;86.50;;;;;;6189157;23;20002;-84
2024/01/26 01:39:53;;;;;;;5.50;2.42;;;10.70;86.60;;;;;;6188892;23;20007;-84
2024/01/26 01:42:19;;;;;;;5.75;2.30;;;10.50;86.50;;;;;;6188999;23;19986;-83
2024/01/26 01:44:50;;;;;;;5.68;2.38;;;10.50;86.50;;;;;;6164770;23;20053;-82
2024/01/26 01:47:16;;;;;;;5.70;2.58;;;10.70;86.50;;;;;;6189048;23;19989;-82
2024/01/26 01:49:43;;;;;;;5.95;2.30;;;10.80;86.70;;;;;;6189145;23;20077;-83
2024/01/26 01:52:14;;;;;;;5.32;2.42;;;10.90;86.70;;;;;;6189680;23;20011;-84
2024/01/26 01:54:40;;;;;;;6.30;2.63;;;10.60;86.50;;;;;;6189142;23;19989;-84
2024/01/26 01:57:07;;;;;;;5.15;2.20;;;10.70;86.70;;;;;;6165140;23;19985;-85
2024/01/26 01:59:33;;;;;;;6.22;2.80;;;10.70;86.60;;;;;;6188824;23;20017;-83
2024/01/26 02:02:00;;;;;;;4.40;2.20;;;10.80;86.70;;;;;;6188749;23;19993;-85
2024/01/26 02:04:26;;;;;;;4.85;2.47;;;10.60;86.60;;;;;;6188974;23;20072;-82
2024/01/26 02:06:55;;;;;;;5.22;2.50;;;10.70;86.70;;;;;;6214315;23;20011;-82
2024/01/26 02:09:21;;;;;;;5.82;2.55;;;10.50;86.50;;;;;;6189168;23;19993;-80
2024/01/26 02:11:47;;;;;;;4.72;2.22;;;10.60;86.60;;;;;;6188735;23;19996;-85
2024/01/26 02:14:13;;;;;;;5.45;2.58;;;10.70;86.60;;;;;;6188845;23;19993;-84
2024/01/26 02:16:39;;;;;;;4.72;2.25;;;10.70;86.70;;;;;;6188687;23;19993;-85
2024/01/26 02:19:05;;;;;;;6.40;2.50;;;10.60;86.60;;;;;;6189012;23;20020;-83
2024/01/26 02:21:30;;;;;;;5.00;2.40;;;11.90;87.40;;;;;;6188430;23;20049;-80
2024/01/26 02:23:58;;;;;;;5.43;2.30;;;10.80;86.70;;;;;;6188624;23;20081;-81
2024/01/26 02:26:23;;;;;;;5.35;2.38;;;10.60;86.60;;;;;;6188618;23;19993;-84
2024/01/26 02:28:49;;;;;;;5.97;2.65;;;10.90;86.80;;;;;;6188646;23;20000;-84
2024/01/26 02:31:15;;;;;;;5.55;2.38;;;10.70;86.70;;;;;;6188331;23;19997;-84
2024/01/26 02:33:41;;;;;;;5.72;2.33;;;10.70;86.70;;;;;;6187699;23;19993;-80
2024/01/26 02:36:07;;;;;;;5.38;2.28;;;10.60;86.60;;;;;;6189028;23;19997;-85
2024/01/26 02:38:33;;;;;;;4.93;2.30;;;10.70;86.70;;;;;;6188636;23;20016;-84
2024/01/26 02:40:59;;;;;;;4.45;2.17;;;10.80;86.70;;;;;;6188383;23;20020;-82
2024/01/26 02:43:25;;;;;;;5.07;2.17;;;10.60;86.60;;;;;;6188481;23;20056;-82
2024/01/26 02:45:51;;;;;;;5.60;2.65;;;10.50;86.60;;;;;;6188608;23;20040;-83
2024/01/26 02:48:17;;;;;;;5.25;2.50;;;10.70;86.70;;;;;;6188908;23;19997;-80
2024/01/26 02:50:43;;;;;;;4.45;2.03;;;10.70;86.70;;;;;;6162733;23;20016;-82
2024/01/26 02:53:11;;;;;;;5.88;2.67;;;10.80;86.70;;;;;;6188113;23;19993;-83
2024/01/26 02:55:37;;;;;;;6.38;3.15;;;10.70;86.70;;;;;;6188119;23;20021;-85
2024/01/26 02:58:03;;;;;;;6.07;2.30;;;10.80;86.70;;;;;;6188356;23;20024;-84
2024/01/26 03:00:29;;;;;;;5.95;2.60;;;10.70;86.70;;;;;;6188756;23;19989;-83
2024/01/26 03:02:55;;;;;;;4.65;2.30;;;10.70;86.70;;;;;;6188739;23;19997;-83
2024/01/26 03:05:23;;;;;;;5.45;2.50;;;10.70;86.70;;;;;;6188355;23;19985;-83
2024/01/26 03:07:49;;;;;;;5.15;2.40;;;10.60;86.60;;;;;;6188291;23;19998;-81
2024/01/26 03:10:15;;;;;;;5.57;2.50;;;10.50;86.60;;;;;;6188442;23;20015;-85
2024/01/26 03:12:41;;;;;;;5.10;2.40;;;10.70;86.70;;;;;;6188415;23;19989;-85
2024/01/26 03:15:08;;;;;;;4.93;2.33;;;10.90;86.80;;;;;;6213233;23;19989;-83
2024/01/26 03:17:35;;;;;;;5.55;2.60;;;10.70;86.70;;;;;;6187558;23;20057;-85
2024/01/26 03:20:02;;;;;;;4.80;2.20;;;10.70;86.70;;;;;;6188108;23;20020;-84
2024/01/26 03:22:27;;;;;;;4.22;2.17;;;10.80;86.80;;;;;;6188196;23;19990;-83
2024/01/26 03:24:53;;;;;;;5.53;2.70;;;11.60;87.20;;;;;;6187971;23;19992;-85
2024/01/26 03:27:19;;;;;;;5.03;2.47;;;10.80;86.80;;;;;;6187904;23;19990;-83
2024/01/26 03:29:45;;;;;;;5.03;2.70;;;10.60;86.70;;;;;;6187995;23;20009;-84
2024/01/26 03:32:11;;;;;;;5.53;2.75;;;10.70;86.70;;;;;;6187819;23;20003;-82
2024/01/26 03:34:37;;;;;;;6.03;2.70;;;10.60;86.70;;;;;;6186383;23;20008;-85
2024/01/26 03:37:03;;;;;;;5.28;2.53;;;10.70;86.80;;;;;;6187932;23;19990;-84
2024/01/26 03:39:29;;;;;;;5.43;2.72;;;10.80;86.80;;;;;;6187968;23;20004;-83
2024/01/26 03:41:55;;;;;;;5.32;2.70;;;10.70;86.80;;;;;;6188095;23;19996;-84
2024/01/26 03:44:20;;;;;;;5.55;2.58;;;10.60;86.70;;;;;;6187535;23;19993;-84
2024/01/26 03:46:46;;;;;;;5.25;2.55;;;10.60;86.70;;;;;;6187730;23;20009;-81
2024/01/26 03:49:12;;;;;;;5.90;2.55;;;10.60;86.60;;;;;;6188089;23;19993;-84
2024/01/26 03:51:38;;;;;;;5.05;2.40;;;10.70;86.80;;;;;;6187695;23;20017;-81
2024/01/26 03:54:04;;;;;;;5.90;2.97;;;10.90;86.80;;;;;;6188070;23;20049;-85
2024/01/26 03:56:30;;;;;;;6.07;3.20;;;10.60;86.70;;;;;;6188390;23;19989;-85
2024/01/26 03:58:56;;;;;;;5.10;2.67;;;10.60;86.80;;;;;;6187947;23;20060;-83
2024/01/26 04:01:22;;;;;;;5.70;2.97;;;10.40;86.70;;;;;;6187666;23;19989;-82
2024/01/26 04:03:48;;;;;;;6.60;3.38;;;10.60;86.80;;;;;;6187561;23;20020;-84
2024/01/26 04:06:14;;;;;;;6.72;3.47;;;10.80;86.90;;;;;;6187675;23;19985;-84
2024/01/26 04:08:40;;;;;;;5.47;2.70;;;10.60;86.80;;;;;;6187970;23;19993;-84
2024/01/26 04:11:06;;;;;;;5.97;3.22;;;10.70;86.90;;;;;;6187847;23;20659;-83
2024/01/26 04:13:32;;;;;;;6.05;3.10;;;10.60;86.80;;;;;;6187822;23;19993;-85
2024/01/26 04:15:58;;;;;;;6.35;3.67;;;10.60;86.90;;;;;;6187920;23;19993;-84
2024/01/26 04:18:23;;;;;;;6.43;3.47;;;10.60;86.90;;;;;;6187522;23;20081;-84
2024/01/26 04:20:49;;;;;;;6.93;3.58;;;10.60;86.90;;;;;;6187826;23;20005;-83
2024/01/26 04:23:15;;;;;;;6.80;3.40;;;10.60;86.90;;;;;;6187437;23;20020;-84
2024/01/26 04:25:43;;;;;;;6.95;3.75;;;10.60;86.90;;;;;;6187690;23;19985;-83
2024/01/26 04:28:09;;;;;;;6.22;3.20;;;10.70;87.00;;;;;;6187747;23;19990;-81
2024/01/26 04:30:35;;;;;;;5.53;3.00;;;10.70;87.00;;;;;;6187839;23;20003;-84
2024/01/26 04:33:03;;;;;;;6.38;3.55;;;10.70;87.00;;;;;;6187747;23;20020;-82
2024/01/26 04:35:30;;;;;;;5.75;3.10;;;10.60;86.90;;;;;;6186692;23;19989;-81
2024/01/26 04:37:56;;;;;;;7.97;3.63;;;10.60;86.90;;;;;;6212862;23;20035;-84
2024/01/26 04:40:22;;;;;;;6.60;3.40;;;10.70;87.00;;;;;;6187922;23;19989;-83
2024/01/26 04:42:49;;;;;;;6.22;3.30;;;10.70;87.00;;;;;;6213315;23;20048;-83
2024/01/26 04:45:17;;;;;;;6.28;3.53;;;10.70;87.00;;;;;;6213162;23;20004;-85
2024/01/26 04:47:43;;;;;;;6.47;3.40;;;10.70;87.00;;;;;;6187296;23;20027;-85
2024/01/26 04:50:09;;;;;;;6.15;3.67;;;10.80;87.10;;;;;;6187307;23;19990;-84
2024/01/26 04:52:35;;;;;;;6.53;3.58;;;10.70;87.00;;;;;;6188008;23;20006;-85
2024/01/26 04:55:01;;;;;;;5.72;3.17;;;10.60;86.90;;;;;;6187698;23;20045;-85
2024/01/26 05:00:03;;;;;;;6.40;3.90;;;10.70;87.00;;;;;;6206653;23;20005;-83
2024/01/26 05:02:29;;;;;;;7.07;3.97;;;10.70;87.10;;;;;;6159020;23;20077;-84
2024/01/26 05:10:07;;;;;;;6.93;4.10;;;10.70;87.10;;;;;;6190973;23;20016;-83
2024/01/26 05:12:36;;;;;;;7.50;4.32;;;10.70;87.10;;;;;;6155634;23;20052;-82
2024/01/26 05:20:13;;;;;;;6.63;4.28;;;10.70;87.10;;;;;;6191991;23;20005;-84
2024/01/26 05:22:39;;;;;;;7.55;4.55;;;10.60;87.10;;;;;;6186644;23;20012;-85
2024/01/26 05:40:37;;;;;;;7.88;5.03;;;10.70;87.20;;;;;;6166300;23;20013;-83
2024/01/26 05:43:06;;;;;;;7.07;4.68;;;10.70;87.20;;;;;;6188340;23;20016;-85
2024/01/26 05:45:32;;;;;;;8.52;5.25;;;10.70;87.30;;;;;;6188645;23;19989;-83
2024/01/26 05:48:05;;;;;;;7.85;5.00;;;10.70;87.30;;;;;;6208384;23;20013;-79
2024/01/26 05:50:31;;;;;;;7.78;5.22;;;10.60;87.30;;;;;;6178998;23;20009;-81
2024/01/26 05:53:01;;;;;;;7.63;5.00;;;10.70;87.40;;;;;;6212613;23;20009;-82
2024/01/26 05:55:36;;;;;;;8.45;5.45;;;10.80;87.40;;;;;;6184820;23;20049;-83
2024/01/26 05:58:02;;;;;;;7.70;5.00;;;10.60;87.30;;;;;;6187526;23;20004;-84
2024/01/26 06:08:17;;;;;;;7.60;5.32;;;10.70;87.40;;;;;;6212977;23;20281;-84
2024/01/26 06:34:09;;;;;;;8.40;5.60;;;10.70;87.30;;;;;;6147554;23;20229;-84
2024/01/26 06:36:36;;;;;;;8.35;5.55;;;10.60;87.30;;;;;;6186520;23;19997;-83
2024/01/26 06:42:00;;;;;;;8.05;5.40;;;10.70;87.40;;;;;;6243125;23;20060;-86
2024/01/26 06:52:12;;;;;;;21.92;6.45;;;10.70;87.80;;;;;;6189681;23;20040;-85
2024/01/26 06:54:38;;;;;;;17.00;6.68;;;10.90;88.00;;;;;;6189948;23;19985;-85
2024/01/26 07:08:09;;;;;;;13.18;5.45;;;10.70;87.90;;;;;;6184903;23;20069;-86
2024/01/26 07:10:37;;;;;;;10.60;5.30;;;10.60;87.80;;;;;;6134165;23;19985;-85
2024/01/26 07:13:07;;;;;;;12.77;5.30;;;10.70;87.90;;;;;;6192809;23;20065;-85
2024/01/26 07:15:33;;;;;;;14.43;5.88;;;10.60;87.80;;;;;;6163563;23;20000;-85
2024/01/26 07:18:00;;;;;;;13.38;5.55;;;10.70;87.90;;;;;;6198428;23;20011;-88
2024/01/26 07:28:30;;;;;;;12.20;5.47;;;10.70;87.90;;;;;;6215652;23;20024;-87
2024/01/26 07:41:24;;;;;;;13.20;5.65;;;10.70;87.80;;;;;;6198887;23;20065;-85
2024/01/26 08:04:34;;;;;;;9.95;5.10;;;10.70;87.80;;;;;;6166534;23;20028;-86
2024/01/26 08:07:01;;;;;;;12.23;5.05;;;10.70;87.80;;;;;;6152547;23;20000;-86
2024/01/26 08:09:30;;;;;;;8.65;4.95;;;10.70;87.80;;;;;;6187637;23;20029;-85
2024/01/26 08:14:31;;;;;;;8.93;4.70;;;10.70;87.80;;;;;;6211080;23;20076;-86
2024/01/26 08:16:57;;;;;;;9.25;4.80;;;10.80;87.90;;;;;;6189145;23;19985;-85
2024/01/26 08:22:03;;;;;;;9.88;4.78;;;10.70;87.80;;;;;;6207518;23;20080;-85
2024/01/26 08:24:32;;;;;;;8.15;4.80;;;10.80;87.90;;;;;;6161830;23;20048;-85
2024/01/26 08:32:11;;;;;;;7.50;4.07;;;10.70;87.80;;;;;;6185914;23;20028;-86
2024/01/26 08:37:13;;;;;;;7.60;4.10;;;10.70;87.80;;;;;;6205561;23;20077;-86
2024/01/26 08:39:47;;;;;;;8.10;4.30;;;10.60;87.80;;;;;;6213789;23;20004;-87
2024/01/26 08:42:14;;;;;;;7.03;4.28;;;10.60;87.80;;;;;;6189197;23;19991;-86
2024/01/26 08:44:41;;;;;;;6.80;4.00;;;10.70;87.80;;;;;;6188498;23;20005;-86
2024/01/26 08:47:10;;;;;;;8.25;4.07;;;10.80;87.90;;;;;;6214583;23;19981;-86
2024/01/26 08:49:36;;;;;;;7.18;4.43;;;11.00;88.00;;;;;;6164856;23;20012;-85
2024/01/26 08:52:08;;;;;;;7.60;4.30;;;10.70;87.80;;;;;;6189122;23;19981;-86
2024/01/26 08:57:11;;;;;;;6.03;3.60;;;10.70;87.90;;;;;;6244133;23;20068;-86
2024/01/26 08:59:40;;;;;;;7.43;4.30;;;10.80;87.90;;;;;;6219122;23;19988;-87
2024/01/26 09:04:43;;;;;;;8.13;4.43;;;10.70;87.80;;;;;;6206783;23;20017;-86
2024/01/26 09:07:10;;;;;;;6.60;4.00;;;10.70;87.80;;;;;;6188964;23;20004;-86
2024/01/26 09:09:43;;;;;;;7.93;4.18;;;10.70;87.90;;;;;;6164770;23;19996;-86
2024/01/26 09:12:15;;;;;;;7.18;4.10;;;10.70;87.90;;;;;;6189959;23;19985;-83
2024/01/26 09:14:46;;;;;;;6.47;4.00;;;11.10;88.10;;;;;;6186280;23;20367;-85
2024/01/26 09:17:12;;;;;;;6.90;4.18;;;10.70;87.90;;;;;;6167350;23;20078;-86
2024/01/26 09:22:15;;;;;;;6.30;3.63;;;10.70;87.90;;;;;;6198675;23;20109;-86
2024/01/26 09:24:40;;;;;;;6.95;4.07;;;10.70;87.90;;;;;;6190379;23;19989;-86
2024/01/26 09:27:11;;;;;;;6.70;3.58;;;11.10;88.20;;;;;;6215107;23;19985;-87
2024/01/26 09:32:14;;;;;;;6.85;3.88;;;10.70;87.90;;;;;;6210194;23;20081;-85
2024/01/26 09:39:53;;;;;;;6.00;3.08;;;10.70;87.90;;;;;;6173012;23;20023;-86
2024/01/26 09:42:19;;;;;;;6.80;3.72;;;10.70;87.90;;;;;;6166424;23;20004;-86
2024/01/26 09:44:49;;;;;;;6.57;3.67;;;11.30;88.20;;;;;;6198823;23;20016;-86
2024/01/26 09:47:15;;;;;;;6.03;3.50;;;10.60;87.80;;;;;;6142616;23;20001;-84
2024/01/26 09:52:21;;;;;;;6.00;3.50;;;10.70;88.00;;;;;;6185872;23;20064;-86
2024/01/26 09:54:50;;;;;;;5.80;3.22;;;10.70;88.00;;;;;;6181465;23;19997;-85
2024/01/26 09:57:45;;;;;;;5.95;3.47;;;11.50;88.40;;;;;;6215778;23;19988;-87
2024/01/26 10:03:55;;;;;;;5.93;3.33;;;10.80;88.00;;;;;;6216861;23;20016;-86
2024/01/26 10:06:29;;;;;;;5.55;3.00;;;10.70;88.00;;;;;;6216655;23;20000;-86
2024/01/26 10:09:01;;;;;;;4.93;2.83;;;10.70;88.00;;;;;;6191413;23;19988;-86
2024/01/26 10:12:30;;;;;;;6.20;2.95;;;10.80;88.00;;;;;;6216685;23;19982;-85
2024/01/26 10:15:13;;;;;;;5.68;2.80;;;10.80;88.00;;;;;;6215584;23;19985;-87
2024/01/26 10:17:59;;;;;;;5.85;3.10;;;10.60;87.90;;;;;;6118239;23;19992;-87
2024/01/26 10:20:57;;;;;;;6.60;2.92;;;10.80;88.00;;;;;;6167285;23;20012;-87
2024/01/26 10:28:35;;;;;;;5.40;2.90;;;10.70;87.90;;;;;;6203389;23;20016;-86
2024/01/26 10:31:02;;;;;;;5.60;3.10;;;10.90;88.00;;;;;;6172562;23;20057;-86
2024/01/26 10:33:33;;;;;;;5.60;2.90;;;10.60;87.80;;;;;;6185262;23;20008;-85
2024/01/26 10:38:36;;;;;;;5.65;2.80;;;10.80;87.90;;;;;;6207313;23;20064;-85
2024/01/26 10:41:03;;;;;;;4.72;2.72;;;10.60;87.80;;;;;;6172454;23;20001;-85
2024/01/26 10:43:32;;;;;;;4.80;2.67;;;10.90;88.00;;;;;;6189772;23;19996;-84
2024/01/26 10:51:16;;;;;;;4.97;2.90;;;10.70;88.30;;;;;;6145398;23;20013;-85
2024/01/26 10:53:50;;;;;;;4.85;2.67;;;10.60;87.80;;;;;;6185680;23;20064;-86
2024/01/26 10:56:16;;;;;;;4.40;2.58;;;10.80;87.90;;;;;;6189930;23;19984;-86
2024/01/26 10:59:20;;;;;;;5.55;3.10;;;10.60;87.70;;;;;;6215717;23;19981;-85
2024/01/26 11:06:58;;;;;;;4.53;2.67;;;10.80;87.80;;;;;;6175638;23;20001;-87
2024/01/26 11:09:26;;;;;;;3.95;2.50;;;10.70;87.80;;;;;;6189978;23;19997;-86
2024/01/26 11:17:46;;;;;;;4.38;2.35;;;10.80;87.80;;;;;;6211898;23;20013;-86
2024/01/26 11:20:18;;;;;;;4.95;2.50;;;10.80;87.80;;;;;;6189686;23;19993;-86
2024/01/26 11:23:13;;;;;;;5.10;2.20;;;10.70;87.70;;;;;;6166176;23;19985;-85
2024/01/26 11:25:44;;;;;;;4.28;2.30;;;10.70;87.70;;;;;;6157187;23;19992;-85
2024/01/26 11:28:21;;;;;;;4.40;2.65;;;10.60;87.70;;;;;;6182636;23;20020;-86
2024/01/26 12:07:03;;;;;;;3.88;2.15;;;10.90;87.60;;;;;;6178997;23;20009;-86
2024/01/26 12:09:34;;;;;;;3.78;2.03;;;11.00;87.60;;;;;;6214878;23;20037;-85
2024/01/26 12:12:27;;;;;;;4.15;2.00;;;10.90;87.40;;;;;;6167622;23;19985;-86
2024/01/26 12:15:11;;;;;;;4.65;2.15;;;10.90;87.40;;;;;;6213626;23;20003;-85
2024/01/26 12:17:37;;;;;;;3.70;2.13;;;11.00;87.40;;;;;;6188867;23;19992;-85
2024/01/26 12:20:10;;;;;;;3.88;2.22;;;11.10;87.40;;;;;;6214344;23;19992;-86
2024/01/26 12:27:48;;;;;;;4.18;2.20;;;10.90;87.20;;;;;;6193099;23;20016;-86
2024/01/26 12:30:14;;;;;;;4.00;2.10;;;11.10;87.40;;;;;;6164880;23;19992;-85
2024/01/26 12:32:44;;;;;;;4.10;2.00;;;10.90;87.20;;;;;;6214642;23;20044;-86
2024/01/26 12:35:11;;;;;;;3.03;1.90;;;11.50;87.40;;;;;;6187365;23;19990;-85
2024/01/26 12:53:10;;;;;;;3.30;1.80;;;11.10;86.80;;;;;;6189101;23;20031;-83
2024/01/26 12:55:37;;;;;;;3.80;2.00;;;11.10;86.50;;;;;;6189526;23;20020;-83
2024/01/26 12:58:07;;;;;;;2.47;1.50;;;11.20;86.40;;;;;;6189315;23;19989;-83
2024/01/26 13:00:36;;;;;;;4.00;1.88;;;11.20;86.30;;;;;;6188232;23;20040;-82
2024/01/26 13:03:05;;;;;;;3.25;1.80;;;11.10;86.10;;;;;;6214904;23;19996;-82
2024/01/26 13:05:32;;;;;;;3.35;1.90;;;11.30;86.10;;;;;;6214991;23;20001;-81
2024/01/26 13:07:58;;;;;;;2.97;1.88;;;11.60;86.20;;;;;;6189058;23;19992;-83
2024/01/26 13:10:25;;;;;;;2.97;1.70;;;11.20;85.90;;;;;;6189158;23;20016;-84
2024/01/26 13:12:51;;;;;;;3.67;1.70;;;11.90;86.20;;;;;;6188713;23;19989;-81
2024/01/26 13:15:21;;;;;;;3.35;1.90;;;11.70;86.00;;;;;;6214018;23;20084;-83
2024/01/26 13:17:49;;;;;;;3.45;1.80;;;11.30;85.70;;;;;;6214167;23;19993;-82
2024/01/26 13:20:19;;;;;;;3.42;1.90;;;11.40;85.70;;;;;;6214257;23;20024;-84
2024/01/26 13:22:47;;;;;;;3.10;1.70;;;11.20;85.50;;;;;;6164991;23;20021;-82
2024/01/26 13:25:17;;;;;;;2.80;1.60;;;11.30;85.50;;;;;;6164693;23;20024;-84
2024/01/26 13:27:43;;;;;;;3.17;1.70;;;11.80;85.80;;;;;;6188925;23;19989;-83
2024/01/26 13:30:10;;;;;;;2.70;1.48;;;11.30;85.50;;;;;;6214211;23;20069;-82
2024/01/26 13:32:56;;;;;;;3.35;1.70;;;11.20;85.50;;;;;;6210478;23;19989;-82
2024/01/26 13:35:23;;;;;;;2.30;1.40;;;11.40;85.60;;;;;;6163769;23;19993;-81
2024/01/26 13:37:50;;;;;;;2.55;1.50;;;11.30;85.70;;;;;;6188291;23;20008;-81
2024/01/26 13:40:17;;;;;;;3.53;1.67;;;11.70;86.00;;;;;;6188567;23;20085;-82
2024/01/26 13:42:46;;;;;;;2.85;1.48;;;11.30;85.80;;;;;;6213829;23;19996;-82
2024/01/26 13:45:12;;;;;;;3.38;1.60;;;11.20;85.80;;;;;;6187843;23;19997;-81
2024/01/26 13:53:11;;;;;;;11.52;1.80;;;11.20;86.50;;;;;;6203687;23;20069;-85
2024/01/26 13:58:24;;;;;;;7.35;1.63;;;11.20;86.80;;;;;;6155652;23;20042;-84
2024/01/26 14:00:52;;;;;;;10.18;1.92;;;11.20;86.80;;;;;;6152065;23;20017;-85
2024/01/26 14:03:20;;;;;;;5.72;1.50;;;11.10;86.70;;;;;;6157286;23;19986;-86
2024/01/26 14:05:47;;;;;;;8.23;1.70;;;11.20;86.70;;;;;;6108710;23;20009;-86
2024/01/26 14:11:08;;;;;;;9.00;2.13;;;11.10;86.70;;;;;;6142650;23;20001;-81
2024/01/26 14:29:15;;;;;;;7.13;1.80;;;11.10;86.80;;;;;;6197683;23;19997;-80
2024/01/26 14:31:49;;;;;;;9.77;2.13;;;11.20;86.90;;;;;;6187550;23;20001;-81
2024/01/26 14:44:44;;;;;;;25.13;3.10;;;11.00;87.00;;;;;;6174762;23;20007;-86
2024/01/26 14:47:32;;;;;;;25.58;2.60;;;11.50;87.50;;;;;;6216244;23;20303;-88
2024/01/26 14:50:07;;;;;;;18.92;2.47;;;11.00;87.30;;;;;;6166922;23;20041;-86
2024/01/26 15:03:55;;;;;;;20.02;2.10;;;11.00;87.60;;;;;;6243862;23;20012;-83
2024/01/26 15:06:26;;;;;;;26.90;4.20;;;10.90;87.60;;;;;;6218265;23;20059;-82
2024/01/26 15:08:55;;;;;;;27.75;3.67;;;11.10;87.70;;;;;;6220661;23;19989;-83
2024/01/26 15:11:21;;;;;;;31.08;3.28;;;11.00;87.70;;;;;;6193281;23;19989;-82
2024/01/26 15:13:54;;;;;;;24.92;3.53;;;11.10;87.70;;;;;;6185598;23;20005;-83
2024/01/26 15:16:20;;;;;;;23.25;2.50;;;11.00;87.60;;;;;;6181203;23;20009;-84
2024/01/26 15:18:47;;;;;;;27.23;2.67;;;11.00;87.60;;;;;;6183351;23;20052;-85
2024/01/26 15:21:21;;;;;;;17.25;2.70;;;10.90;87.50;;;;;;6183860;23;20049;-84
2024/01/26 15:26:25;;;;;;;18.40;2.63;;;11.00;87.50;;;;;;6164058;23;20020;-83
2024/01/26 15:28:50;;;;;;;16.98;2.50;;;11.00;87.50;;;;;;6150507;23;20507;-80
2024/01/26 15:31:22;;;;;;;11.45;1.80;;;11.00;87.50;;;;;;6157262;23;20013;-79
2024/01/26 15:33:48;;;;;;;14.30;2.65;;;11.00;87.50;;;;;;6155930;23;20017;-81
2024/01/26 15:36:14;;;;;;;15.05;2.00;;;11.10;87.60;;;;;;6156348;23;19989;-80
2024/01/26 15:38:43;;;;;;;18.65;2.78;;;11.10;87.60;;;;;;6155225;23;20018;-79
2024/01/26 15:41:09;;;;;;;17.25;2.38;;;10.90;87.50;;;;;;6156450;23;20005;-79
2024/01/26 15:43:35;;;;;;;16.65;1.95;;;10.90;87.50;;;;;;6156807;23;20010;-79
2024/01/26 15:46:01;;;;;;;19.95;2.28;;;10.90;87.50;;;;;;6156450;23;20335;-80
2024/01/26 15:48:29;;;;;;;16.90;1.95;;;11.20;87.70;;;;;;6157212;23;20001;-81
2024/01/26 15:50:58;;;;;;;16.05;2.25;;;10.90;87.50;;;;;;6157131;23;19985;-80
2024/01/26 15:53:26;;;;;;;15.13;1.88;;;11.10;87.70;;;;;;6157006;23;19994;-81
2024/01/26 15:55:54;;;;;;;14.85;2.53;;;11.00;87.60;;;;;;6156209;23;20001;-80
2024/01/26 15:58:20;;;;;;;11.38;1.60;;;11.10;87.70;;;;;;6182080;23;20010;-79
2024/01/26 16:00:48;;;;;;;13.55;1.63;;;10.90;87.50;;;;;;6156569;23;20000;-79
2024/01/26 16:03:13;;;;;;;13.40;1.73;;;11.10;87.70;;;;;;6157046;23;20006;-80
2024/01/26 16:05:42;;;;;;;15.55;2.00;;;11.10;87.70;;;;;;6155853;23;20024;-79
2024/01/26 16:08:08;;;;;;;12.90;1.63;;;10.80;87.50;;;;;;6157128;23;20014;-81
2024/01/26 16:10:41;;;;;;;15.82;1.98;;;11.00;87.70;;;;;;6132335;23;20052;-80
2024/01/26 16:13:07;;;;;;;12.02;1.73;;;11.00;87.70;;;;;;6131838;23;19989;-83
2024/01/26 16:15:33;;;;;;;11.68;1.50;;;10.90;87.60;;;;;;6157900;23;19990;-83
2024/01/26 16:17:59;;;;;;;11.98;2.10;;;10.90;87.60;;;;;;6157899;23;19989;-82
2024/01/26 16:20:29;;;;;;;16.33;1.85;;;11.00;87.70;;;;;;6183293;23;20009;-83
2024/01/26 16:22:56;;;;;;;12.48;1.83;;;10.90;87.60;;;;;;6122638;23;20009;-83
2024/01/26 16:25:24;;;;;;;9.45;1.60;;;11.10;87.70;;;;;;6128280;23;20018;-82
2024/01/26 16:27:50;;;;;;;10.45;1.63;;;11.00;87.70;;;;;;6127051;23;19994;-83
2024/01/26 16:32:52;;;;;;;9.05;1.80;;;10.90;87.70;;;;;;6181868;23;20061;-83
2024/01/26 16:35:34;;;;;;;10.55;1.88;;;10.90;87.60;;;;;;5147173;27;20381;-84
2024/01/26 16:37:59;;;;;;;7.43;1.30;;;10.90;87.60;;;;;;5112489;28;20471;-83
2024/01/26 16:40:26;;;;;;;10.38;1.63;;;11.00;87.70;;;;;;5131202;28;20023;-82
2024/01/26 16:42:53;;;;;;;10.45;1.70;;;10.90;87.70;;;;;;5112667;28;20030;-82
2024/01/26 16:45:20;;;;;;;10.50;1.70;;;10.90;87.60;;;;;;5112471;28;20020;-82
2024/01/26 16:47:46;;;;;;;10.05;1.75;;;10.90;87.70;;;;;;5112367;28;20042;-81
2024/01/26 16:50:11;;;;;;;8.80;1.50;;;10.90;87.70;;;;;;5112504;28;20023;-82
2024/01/26 16:52:37;;;;;;;9.18;1.30;;;10.90;87.70;;;;;;5112451;28;20484;-81
2024/01/26 16:55:04;;;;;;;9.80;1.42;;;10.90;87.70;;;;;;5112138;28;20156;-81
2024/01/26 16:57:29;;;;;;;6.93;1.40;;;11.00;87.70;;;;;;5112076;28;20039;-83
2024/01/26 16:59:55;;;;;;;9.02;1.50;;;11.00;87.50;;;;;;5112288;28;20105;-82
2024/01/26 17:02:20;;;;;;;11.88;1.55;;;11.00;87.40;;;;;;5130095;28;20047;-81
2024/01/26 17:04:46;;;;;;;9.75;1.67;;;11.00;87.40;;;;;;5111995;28;20042;-81
2024/01/26 17:07:11;;;;;;;12.93;1.88;;;11.00;88.00;;;;;;5111988;28;20023;-82
2024/01/26 17:09:37;;;;;;;14.40;1.90;;;11.00;87.50;;;;;;5112235;28;20035;-82
2024/01/26 17:12:03;;;;;;;12.95;1.60;;;10.90;87.50;;;;;;5112029;28;20027;-82
2024/01/26 17:14:28;;;;;;;9.05;1.70;;;11.00;87.60;;;;;;5111965;28;20024;-81
2024/01/26 17:16:53;;;;;;;15.95;2.15;;;11.00;87.60;;;;;;5130060;28;20020;-81
2024/01/26 17:19:19;;;;;;;11.52;1.50;;;11.00;87.60;;;;;;5111035;28;20468;-80
2024/01/26 17:21:45;;;;;;;11.27;2.03;;;10.90;87.60;;;;;;5111118;28;20051;-81
2024/01/26 17:24:10;;;;;;;10.45;1.65;;;10.90;87.60;;;;;;5111246;28;20077;-82
2024/01/26 17:26:36;;;;;;;9.55;1.50;;;10.90;87.60;;;;;;5111041;28;20019;-81
2024/01/26 17:29:02;;;;;;;12.85;1.80;;;10.90;87.70;;;;;;5111563;28;20098;-81
2024/01/26 17:31:27;;;;;;;8.07;1.20;;;11.00;87.70;;;;;;5111713;28;20023;-81
2024/01/26 17:33:54;;;;;;;14.05;1.73;;;10.90;87.70;;;;;;5129757;28;20127;-82
2024/01/26 17:36:20;;;;;;;10.60;1.35;;;10.90;87.70;;;;;;5111716;28;20069;-82
2024/01/26 17:38:45;;;;;;;8.68;1.35;;;11.00;87.80;;;;;;5111856;28;20023;-83
2024/01/26 17:41:11;;;;;;;9.18;1.33;;;10.90;87.70;;;;;;5111851;28;20027;-83
2024/01/26 17:43:36;;;;;;;7.07;1.30;;;10.90;87.70;;;;;;5111356;28;20031;-82
2024/01/26 17:46:03;;;;;;;8.40;1.27;;;10.90;87.70;;;;;;5102628;28;20019;-82
2024/01/26 17:48:29;;;;;;;7.57;1.38;;;10.90;87.70;;;;;;5097964;28;20027;-83